createdAt,value
2018-10-12T00:06:04.188Z,37.83
2018-10-12T00:16:05.451Z,43.03
2018-10-12T00:26:06.750Z,38.73
2018-10-12T00:36:08.022Z,41.47
2018-10-12T00:46:09.270Z,40.03
2018-10-12T00:56:10.511Z,39.50
2018-10-12T01:06:11.755Z,45.03
2018-10-12T01:16:13.753Z,47.70
2018-10-12T01:26:15.777Z,42.70
2018-10-12T01:36:17.810Z,43.50
2018-10-12T01:46:19.847Z,45.70
2018-10-12T01:56:21.114Z,42.30
2018-10-12T02:06:22.397Z,44.53
2018-10-12T02:16:23.660Z,43.93
2018-10-12T02:26:24.922Z,44.67
2018-10-12T02:36:26.258Z,46.97
2018-10-12T02:46:27.505Z,48.27
2018-10-12T02:56:28.751Z,40.97
2018-10-12T03:06:29.979Z,46.73
2018-10-12T03:16:31.256Z,48.63
2018-10-12T03:26:32.574Z,50.03
2018-10-12T03:36:33.862Z,43.83
2018-10-12T03:46:35.143Z,43.17
2018-10-12T03:56:37.234Z,40.77
2018-10-12T04:06:38.579Z,43.77
2018-10-12T04:16:39.861Z,43.60
2018-10-12T04:26:41.185Z,52.40
2018-10-12T04:36:42.460Z,49.13
2018-10-12T04:46:43.698Z,49.83
2018-10-12T04:56:44.951Z,46.13
2018-10-12T05:06:46.182Z,50.37
2018-10-12T05:16:47.439Z,49.73
2018-10-12T05:26:48.711Z,44.53
2018-10-12T05:36:49.973Z,55.90
2018-10-12T05:46:51.260Z,46.90
2018-10-12T05:56:52.551Z,57.03
2018-10-12T06:06:53.839Z,45.80
2018-10-12T06:16:55.119Z,51.33
2018-10-12T06:26:56.452Z,51.17
2018-10-12T06:36:57.684Z,46.17
2018-10-12T06:46:59.703Z,43.37
2018-10-12T06:57:00.938Z,43.37
2018-10-12T07:07:02.218Z,39.03
2018-10-12T07:17:03.482Z,44.10
2018-10-12T07:27:04.763Z,40.10
2018-10-12T07:37:06.177Z,36.20
2018-10-12T07:47:08.293Z,33.50
2018-10-12T07:57:09.647Z,39.23
2018-10-12T08:07:11.721Z,30.00
2018-10-12T08:17:13.083Z,29.07
2018-10-12T08:27:15.137Z,28.37
2018-10-12T08:37:16.445Z,28.77
2018-10-12T08:47:17.699Z,28.63
2018-10-12T08:57:18.963Z,23.40
2018-10-12T09:07:20.251Z,21.95
2018-10-12T09:17:21.567Z,21.75
2018-10-12T09:27:22.854Z,22.55
2018-10-12T09:37:24.135Z,20.70
2018-10-12T09:47:25.410Z,20.88
2018-10-12T09:57:26.709Z,23.80
2018-10-12T10:07:27.991Z,21.92
2018-10-12T10:17:29.256Z,26.80
2018-10-12T10:27:30.636Z,25.83
2018-10-12T10:37:31.934Z,23.93
2018-10-12T10:47:33.794Z,24.50
2018-10-12T10:57:36.910Z,26.10
2018-10-12T11:07:38.992Z,25.13
2018-10-12T11:17:43.585Z,24.90
2018-10-12T11:27:44.865Z,28.27
2018-10-12T11:37:46.155Z,23.67
2018-10-12T11:47:47.502Z,21.80
2018-10-12T11:57:48.800Z,22.27
2018-10-12T12:07:50.854Z,22.57
2018-10-12T12:17:52.121Z,24.50
2018-10-12T12:27:54.161Z,26.00
2018-10-12T12:37:56.194Z,28.90
2018-10-12T12:47:57.674Z,25.87
2018-10-12T12:57:59.602Z,28.53
2018-10-12T13:08:00.888Z,25.17
2018-10-12T13:18:02.400Z,26.57
2018-10-12T13:28:03.739Z,29.27
2018-10-12T13:38:05.174Z,25.77
2018-10-12T13:48:06.428Z,23.97
2018-10-12T13:58:07.803Z,26.63
2018-10-12T14:08:09.103Z,27.50
2018-10-12T14:18:10.446Z,25.37
2018-10-12T14:28:12.510Z,27.43
2018-10-12T14:38:13.882Z,32.73
2018-10-12T14:48:15.321Z,29.20
2018-10-12T14:58:18.140Z,26.43
2018-10-12T15:08:19.456Z,25.87
2018-10-12T15:18:20.912Z,26.80
2018-10-12T15:28:22.547Z,28.53
2018-10-12T15:38:23.971Z,29.77
2018-10-12T15:48:25.246Z,28.00
2018-10-12T15:58:26.606Z,29.93
2018-10-12T16:08:27.863Z,32.13
2018-10-12T16:18:29.150Z,32.83
2018-10-12T16:28:31.462Z,36.20
2018-10-12T16:38:32.746Z,33.20
2018-10-12T16:48:34.100Z,40.13
2018-10-12T16:58:35.342Z,37.97
2018-10-12T17:08:37.210Z,36.97
2018-10-12T17:18:38.665Z,39.13
2018-10-12T17:28:39.971Z,40.63
2018-10-12T17:38:41.247Z,43.33
2018-10-12T17:48:43.278Z,41.83
2018-10-12T17:58:44.604Z,43.93
2018-10-12T18:08:46.439Z,42.83
2018-10-12T18:18:48.360Z,44.80
2018-10-12T18:28:50.296Z,46.40
2018-10-12T18:38:52.223Z,46.03
2018-10-12T18:48:55.612Z,53.63
2018-10-12T18:58:57.538Z,48.93
2018-10-12T19:08:59.505Z,51.93
2018-10-12T19:19:00.864Z,52.00
2018-10-12T19:29:03.238Z,53.63
2018-10-12T19:39:04.538Z,50.67
2018-10-12T19:49:05.776Z,54.80
2018-10-12T19:59:07.825Z,53.10
2018-10-12T20:09:10.132Z,49.63
2018-10-12T20:19:11.800Z,53.77
2018-10-12T20:29:13.603Z,55.17
2018-10-12T20:39:15.029Z,58.03
2018-10-12T20:49:16.614Z,54.33
2018-10-12T20:59:17.997Z,55.07
2018-10-12T21:09:19.258Z,54.33
2018-10-12T21:19:20.790Z,52.10
2018-10-12T21:29:22.053Z,58.07
2018-10-12T21:39:23.314Z,53.17
2018-10-12T21:49:25.784Z,53.83
2018-10-12T21:59:27.346Z,51.40
2018-10-12T22:09:28.684Z,56.37
2018-10-12T22:19:29.954Z,54.47
2018-10-12T22:29:31.220Z,54.43
2018-10-12T22:39:32.470Z,53.57
2018-10-12T22:49:33.749Z,53.97
2018-10-12T22:59:35.083Z,56.63
2018-10-12T23:09:36.314Z,55.50
2018-10-12T23:19:38.327Z,52.13
2018-10-12T23:29:39.729Z,55.13
2018-10-12T23:39:40.970Z,55.23
2018-10-12T23:49:42.230Z,50.87
2018-10-12T23:59:43.550Z,54.80
